Terminal Aerodrome Forecast
Issued by NWS

Home | Current Version | Previous Version | Text Only | Print | Product List | Glossary On
Versions: 1 2 3 4 5 6 7 8 9 10 11 12 13
000
FTUS43 KICT 161700
TAFCNU
TAF
KCNU 161737Z 1618/1718 19028G38KT P6SM FEW250
     FM162300 18016G28KT P6SM SCT250
     FM170700 VRB06KT P6SM BKN120
     FM171500 04012KT P6SM BKN060 OVC120=

USA.gov is the U.S. government's official web portal to all federal, state and local government web resources and services.